Portada
METAR-TAF:

METAR-TAF

Aeroports :

Gibraltar, Gibraltar

latitud: 36-09N, longitud: 005-21W, altitud: 5 m

Observació

L'informe es va fer fa 1 hora i 8 minuts, a les 03:50 UTC
Vent 27 kt del Est
Temperatura 15°C
Humitat 67%
Pressió 1023 hPa
Visibilitat 10 km o més

METAR: LXGB 200350Z AUTO 09027KT 9999 // SCT031/// BKN050/// 15/09 Q1023

Hora: 05:58 (04:58 UTC)

Pronòstic

L'informe es va fer fa 12 hores i 29 minuts, a les 16:29 UTC
Pronòstic vàlid del 19 a les 18 UTC al 19 a les 23 UTC
Vent 3 kt amb direcció variable
Visibilitat 10 km o més
Escasses núvols a una alçada de 2000 ft
Evolucionant progressivament
l' 19 a les 19 UTC al 19 a les 22 UTC
Vent 15 kt del Est
Núvols disperses a una alçada de 2000 ft

TAF: LXGB 191629Z 1918/1923 VRB03KT 9999 FEW020 BECMG 1919/1922 09015KT SCT020

Observacions i pronòstics meteorològics de més de 4000 aeroports (METAR i TAF).

Les estacions disponibles són els punts grocs i vermells al mapa.

Posi el ratolí al punt desitjat per veure el nom de l'estació.

Feu clic per veure les observacions i els pronòstics meteorològics.

Per canviar el mapa: feu clic els botons verds amb una creu de color negre per apropar; al botó verd amb un guió per allunyar la imatge; o en les fletxes verdes per a mapes adjacents.


METAR-TAF: